This is the latest recevied weather packets stored in our database for station/object W9LRT-WX. If no packets are shown the sender has not sent any weather packets the latest 1 day(s).
| Time | Temp. | Humidity | Pressure | Rain* | Wind** | Luminosity | Snow |
|---|---|---|---|---|---|---|---|
| 1777985484 | 10° C | 70% | 1006.2 hPa | 0 mm | 1.79 m/s, 0° | 155 W/m² | - |
| 1777984587 | 10.56° C | 69% | 1005.2 hPa | 0 mm | 1.79 m/s, 306° | 172 W/m² | - |
| 1777983680 | 10.56° C | 71% | 1005.3 hPa | 0 mm | 1.34 m/s, 0° | 165 W/m² | - |
| 1777982783 | 10.56° C | 71% | 1004.5 hPa | 0 mm | 0.89 m/s, 344° | 151 W/m² | - |
| 1777981880 | 10.56° C | 73% | 1005 hPa | 0 mm | 0.45 m/s, 293° | 88 W/m² | - |
| 1777980981 | 10.56° C | 75% | 1004.6 hPa | 0 mm | 0 m/s | 111 W/m² | - |
| 1777980081 | 10° C | 74% | 1004.2 hPa | 0 mm | 0.89 m/s, 315° | 67 W/m² | - |
| 1777979178 | 10° C | 74% | 1003.9 hPa | 0 mm | 0.89 m/s, 338° | 19 W/m² | - |
| 1777978277 | 10.56° C | 72% | 1004.5 hPa | 0 mm | 1.79 m/s, 289° | 5 W/m² | - |
| 1777977380 | 11.11° C | 76% | 1004.4 hPa | 0 mm | 2.24 m/s, 327° | 0 W/m² | - |
| 1777976477 | 11.67° C | 93% | 1003.9 hPa | 0 mm | 0.89 m/s, 0° | 0 W/m² | - |
| 1777975578 | 12.22° C | 94% | 1003.4 hPa | 0 mm | 0.89 m/s, 0° | 0 W/m² | - |
| 1777974677 | 12.22° C | 94% | 1003.1 hPa | 0 mm | 1.34 m/s, 234° | 0 W/m² | - |
| 1777973778 | 12.78° C | 94% | 1002.8 hPa | 0 mm | 0.89 m/s, 0° | 0 W/m² | - |
| 1777972875 | 12.78° C | 93% | 1002.8 hPa | 0 mm | 1.34 m/s, 243° | 0 W/m² | - |
| 1777971976 | 12.78° C | 93% | 1002.7 hPa | 0 mm | 1.34 m/s, 254° | 0 W/m² | - |
| 1777971076 | 12.78° C | 93% | 1002.6 hPa | 0 mm | 1.79 m/s, 238° | 0 W/m² | - |
| 1777970176 | 12.78° C | 92% | 1002.3 hPa | 0 mm | 1.79 m/s, 229° | 0 W/m² | - |
| 1777969276 | 13.33° C | 91% | 1002.2 hPa | 0 mm | 2.68 m/s, 276° | 0 W/m² | - |
| 1777968376 | 13.33° C | 91% | 1002.3 hPa | 0 mm | 3.13 m/s, 0° | 0 W/m² | - |
| 1777967476 | 13.33° C | 91% | 1002 hPa | 0 mm | 3.13 m/s, 0° | 0 W/m² | - |
| 1777966571 | 13.33° C | 91% | 1002.1 hPa | 0 mm | 3.13 m/s, 0° | 0 W/m² | - |
| 1777965673 | 13.33° C | 91% | 1002 hPa | 0 mm | 2.24 m/s, 0° | 0 W/m² | - |
* Rain latest hour (hover to see other rain measurements)
** Current wind speed in m/s (hover to see current wind gust speed)